Bookmark and Share
Track history (hours):
 

Iris Victoria

Last reported at 2014-Apr-16 07:33 UTC. Time now 2014-Apr-16 07:48 UTC.
Position N 57°50' E 010°42'.

Length 228 m; draft 14.8 m.

Type: Ship. MMSI: 538003876.

NotesDate/timePositionNaut miles runAvg speedWind from/ knotsBaromVisibWave heightAir tempDewpointWater temp
2014-Apr-16 07:33N 57°50' E 010°42'1110.8
2014-Apr-16 06:33N 57°42' E 010°57'1212.5
2014-Apr-16 05:33N 57°34' E 011°13'1212.2
2014-Apr-16 04:33N 57°24' E 011°28'1212.1
2014-Apr-16 03:33N 57°13' E 011°36'1212.3
2014-Apr-16 02:33N 57°01' E 011°44'1312.8
2014-Apr-16 01:33N 56°49' E 011°51'1211.1
2014-Apr-16 00:31N 56°38' E 011°46'1212.9
2014-Apr-15 23:33N 56°27' E 011°35'1512.2
2014-Apr-15 22:19N 56°14' E 011°21'911.9
2014-Apr-15 21:33N 56°07' E 011°11'91 8.2
2014-Apr-15 10:30N 54°36' E 011°02'1010.7
2014-Apr-15 09:34N 54°34' E 011°19'1211.7
2014-Apr-15 08:34N 54°29' E 011°37'1211.9
2014-Apr-15 07:34N 54°27' E 011°57'10 9.7
2014-Apr-15 06:34N 54°30' E 012°13'1111.2
2014-Apr-15 05:34N 54°39' E 012°24'2211.0
2014-Apr-15 03:34N 54°50' E 012°57'1212.0
2014-Apr-15 02:33N 54°54' E 013°17'1212.1
2014-Apr-15 01:34N 54°58' E 013°36'1212.2
2014-Apr-15 00:34N 55°03' E 013°56'1211.8
2014-Apr-14 23:34N 55°10' E 014°13'1212.0
2014-Apr-14 22:34N 55°14' E 014°32'1111.0
2014-Apr-14 21:34N 55°19' E 014°49'5 5.0
2014-Apr-14 20:34N 55°22' E 014°56'8 8.1
2014-Apr-14 19:34N 55°30' E 015°01'1211.6
2014-Apr-14 18:32N 55°38' E 015°16'  
2014-Apr-10 23:31N 56°13' E 018°31'15 7.3
2014-Apr-10 21:31N 56°04' E 018°09'8911.1
2014-Apr-10 13:27N 55°40' E 015°36'1112.1
2014-Apr-10 12:33N 55°36' E 015°19'1212.1
2014-Apr-10 11:33N 55°30' E 014°60'1212.3
2014-Apr-10 10:33N 55°25' E 014°40'1211.8
2014-Apr-10 09:33N 55°16' E 014°27'1111.4
2014-Apr-10 08:33N 55°09' E 014°11'1212.4
2014-Apr-10 07:33N 55°10' E 013°49'1212.2
2014-Apr-10 06:33N 55°10' E 013°28'1212.2
2014-Apr-10 05:33N 55°13' E 013°07'1212.2
2014-Apr-10 04:33N 55°16' E 012°46'1110.6
2014-Apr-10 03:33N 55°26' E 012°39'10 9.5
2014-Apr-10 02:33N 55°35' E 012°42'1110.9
2014-Apr-10 01:33N 55°46' E 012°41'1414.4
2014-Apr-10 00:33N 56°00' E 012°38'1110.8
2014-Apr-09 23:33N 56°09' E 012°26'8 7.6
2014-Apr-09 22:33N 56°13' E 012°15'8 7.9
2014-Apr-09 21:33N 56°18' E 012°03'9 8.5
2014-Apr-09 20:32N 56°26' E 011°60'9 9.2
2014-Apr-09 19:33N 56°35' E 011°56'1212.3
2014-Apr-09 18:33N 56°47' E 011°51'1212.3
2014-Apr-09 17:33N 56°59' E 011°43'1212.4
2014-Apr-09 16:33N 57°10' E 011°35'1312.9
2014-Apr-09 15:33N 57°22' E 011°27'1212.2
2014-Apr-09 14:34N 57°32' E 011°14'1212.0
2014-Apr-09 13:34N 57°40' E 010°57'10 9.8
2014-Apr-09 12:33N 57°41' E 010°39'0 0.2
2014-Apr-09 11:31N 57°41' E 010°39'0 0.0
2014-Apr-09 10:31N 57°41' E 010°39'0 0.0
2014-Apr-09 09:31N 57°41' E 010°39'0 0.0
2014-Apr-09 07:26N 57°41' E 010°39'2 2.2
2014-Apr-09 06:33N 57°41' E 010°43'7 6.6
2014-Apr-09 05:33N 57°47' E 010°47'1111.5
2014-Apr-09 04:33N 57°53' E 010°28'1110.9
2014-Apr-09 03:33N 57°54' E 010°08'1411.5
2014-Apr-09 02:22N 57°51' E 009°43'38610.5
2014-Apr-07 13:28N 52°26' E 003°38'1112.6
2014-Apr-07 12:33N 52°25' E 003°56'5 4.4
2014-Apr-07 11:30N 52°27' E 004°03'0 0.4
2014-Apr-07 10:33N 52°27' E 004°03'5 5.0
2014-Apr-07 09:33N 52°27' E 003°55'10 9.8
2014-Apr-07 08:33N 52°25' E 003°39'1312.3
2014-Apr-07 07:32N 52°27' E 003°19'4410.8
2014-Apr-07 03:25N 51°51' E 002°35'910.2
2014-Apr-07 02:34N 51°42' E 002°33'1211.5
2014-Apr-07 01:33N 51°34' E 002°21'1111.1
2014-Apr-07 00:32N 51°24' E 002°11'1111.5
2014-Apr-06 23:34N 51°13' E 002°06'1111.4
2014-Apr-06 22:33N 51°08' E 001°50'1211.6
2014-Apr-06 21:33N 51°00' E 001°36'1211.8
2014-Apr-06 20:33N 50°50' E 001°26'1211.9
2014-Apr-06 19:33N 50°40' E 001°17'1212.5
2014-Apr-06 18:33N 50°32' E 001°02'1212.1
2014-Apr-06 17:33N 50°27' E 000°45'1212.4
2014-Apr-06 16:33N 50°24' E 000°26'1312.6
2014-Apr-06 15:33N 50°21' E 000°06'2913.5
2014-Apr-06 13:24N 50°13' W 000°37'1214.6
2014-Apr-06 12:34N 50°10' W 000°56'1515.0
2014-Apr-06 11:33N 50°05' W 001°18'  

Dump ship's entire track history

sailing weather and tide predictions

Iris Victoria — V7TS8 — position and weather